sensor_id;sensor_type;location;lat;lon;timestamp;P1;durP1;ratioP1;P2;durP2;ratioP2
28848;SDS011;15981;43.292;-2.888;2023-03-23T00:00:08;3.35;;;2.00;;
28848;SDS011;15981;43.292;-2.888;2023-03-23T00:02:34;3.08;;;1.98;;
28848;SDS011;15981;43.292;-2.888;2023-03-23T00:05:01;2.50;;;1.95;;
28848;SDS011;15981;43.292;-2.888;2023-03-23T00:07:28;3.70;;;1.90;;
28848;SDS011;15981;43.292;-2.888;2023-03-23T00:09:54;2.57;;;1.87;;
28848;SDS011;15981;43.292;-2.888;2023-03-23T00:12:21;3.70;;;2.20;;
28848;SDS011;15981;43.292;-2.888;2023-03-23T00:14:58;2.72;;;1.90;;
28848;SDS011;15981;43.292;-2.888;2023-03-23T00:17:26;2.55;;;1.90;;
28848;SDS011;15981;43.292;-2.888;2023-03-23T00:19:52;3.55;;;2.13;;
28848;SDS011;15981;43.292;-2.888;2023-03-23T00:22:18;2.40;;;1.90;;
28848;SDS011;15981;43.292;-2.888;2023-03-23T00:24:46;3.22;;;2.22;;
28848;SDS011;15981;43.292;-2.888;2023-03-23T00:27:13;3.22;;;2.35;;
28848;SDS011;15981;43.292;-2.888;2023-03-23T00:29:40;3.00;;;2.10;;
28848;SDS011;15981;43.292;-2.888;2023-03-23T00:32:07;4.10;;;2.37;;
28848;SDS011;15981;43.292;-2.888;2023-03-23T00:34:38;4.53;;;2.50;;
28848;SDS011;15981;43.292;-2.888;2023-03-23T00:37:05;2.45;;;2.00;;
28848;SDS011;15981;43.292;-2.888;2023-03-23T00:39:31;2.78;;;2.00;;
28848;SDS011;15981;43.292;-2.888;2023-03-23T00:41:57;2.80;;;2.07;;
28848;SDS011;15981;43.292;-2.888;2023-03-23T00:44:26;4.57;;;2.13;;
28848;SDS011;15981;43.292;-2.888;2023-03-23T00:46:53;2.65;;;2.05;;
28848;SDS011;15981;43.292;-2.888;2023-03-23T00:49:22;3.50;;;2.08;;
28848;SDS011;15981;43.292;-2.888;2023-03-23T00:51:52;3.28;;;2.30;;
28848;SDS011;15981;43.292;-2.888;2023-03-23T00:54:18;3.90;;;2.17;;
28848;SDS011;15981;43.292;-2.888;2023-03-23T00:56:45;3.60;;;2.17;;
28848;SDS011;15981;43.292;-2.888;2023-03-23T00:59:10;3.10;;;2.20;;
28848;SDS011;15981;43.292;-2.888;2023-03-23T01:01:36;5.28;;;2.50;;
28848;SDS011;15981;43.292;-2.888;2023-03-23T01:04:02;3.47;;;2.10;;
28848;SDS011;15981;43.292;-2.888;2023-03-23T01:06:33;3.90;;;2.40;;
28848;SDS011;15981;43.292;-2.888;2023-03-23T01:09:01;3.50;;;2.40;;
28848;SDS011;15981;43.292;-2.888;2023-03-23T01:11:28;3.67;;;2.50;;
28848;SDS011;15981;43.292;-2.888;2023-03-23T01:13:54;3.60;;;2.60;;
28848;SDS011;15981;43.292;-2.888;2023-03-23T01:16:20;5.63;;;2.67;;
28848;SDS011;15981;43.292;-2.888;2023-03-23T01:18:46;5.43;;;2.53;;
28848;SDS011;15981;43.292;-2.888;2023-03-23T01:21:13;4.30;;;2.38;;
28848;SDS011;15981;43.292;-2.888;2023-03-23T01:23:40;3.33;;;2.20;;
28848;SDS011;15981;43.292;-2.888;2023-03-23T01:26:15;2.87;;;2.20;;
28848;SDS011;15981;43.292;-2.888;2023-03-23T01:28:42;4.53;;;2.37;;
28848;SDS011;15981;43.292;-2.888;2023-03-23T01:31:09;3.78;;;2.40;;
28848;SDS011;15981;43.292;-2.888;2023-03-23T01:33:37;5.47;;;2.60;;
28848;SDS011;15981;43.292;-2.888;2023-03-23T01:36:04;3.50;;;2.60;;
28848;SDS011;15981;43.292;-2.888;2023-03-23T01:38:31;4.28;;;2.28;;
28848;SDS011;15981;43.292;-2.888;2023-03-23T01:40:57;4.43;;;2.53;;
28848;SDS011;15981;43.292;-2.888;2023-03-23T01:43:23;3.73;;;2.33;;
28848;SDS011;15981;43.292;-2.888;2023-03-23T01:45:48;5.70;;;2.72;;
28848;SDS011;15981;43.292;-2.888;2023-03-23T01:51:06;4.43;;;2.60;;
28848;SDS011;15981;43.292;-2.888;2023-03-23T01:53:30;3.88;;;2.90;;
28848;SDS011;15981;43.292;-2.888;2023-03-23T01:55:57;5.43;;;2.83;;
28848;SDS011;15981;43.292;-2.888;2023-03-23T01:58:25;4.40;;;2.60;;
28848;SDS011;15981;43.292;-2.888;2023-03-23T02:00:53;5.13;;;2.42;;
28848;SDS011;15981;43.292;-2.888;2023-03-23T02:03:20;3.63;;;2.38;;
28848;SDS011;15981;43.292;-2.888;2023-03-23T02:05:48;4.72;;;2.63;;
28848;SDS011;15981;43.292;-2.888;2023-03-23T02:08:14;4.40;;;2.63;;
28848;SDS011;15981;43.292;-2.888;2023-03-23T02:10:41;3.85;;;2.47;;
28848;SDS011;15981;43.292;-2.888;2023-03-23T02:13:08;5.68;;;2.50;;
28848;SDS011;15981;43.292;-2.888;2023-03-23T02:15:45;3.90;;;2.60;;
28848;SDS011;15981;43.292;-2.888;2023-03-23T02:38:54;4.95;;;2.60;;
28848;SDS011;15981;43.292;-2.888;2023-03-23T02:41:22;4.32;;;2.40;;
28848;SDS011;15981;43.292;-2.888;2023-03-23T02:43:49;4.47;;;2.72;;
28848;SDS011;15981;43.292;-2.888;2023-03-23T02:46:16;4.32;;;2.72;;
28848;SDS011;15981;43.292;-2.888;2023-03-23T02:48:42;4.10;;;2.40;;
28848;SDS011;15981;43.292;-2.888;2023-03-23T02:51:10;4.03;;;2.43;;
28848;SDS011;15981;43.292;-2.888;2023-03-23T02:53:37;3.88;;;2.55;;
28848;SDS011;15981;43.292;-2.888;2023-03-23T02:56:04;4.93;;;2.42;;
28848;SDS011;15981;43.292;-2.888;2023-03-23T02:58:31;3.65;;;2.60;;
28848;SDS011;15981;43.292;-2.888;2023-03-23T03:00:58;3.17;;;2.08;;
28848;SDS011;15981;43.292;-2.888;2023-03-23T03:03:26;4.50;;;2.33;;
28848;SDS011;15981;43.292;-2.888;2023-03-23T03:15:53;3.30;;;2.20;;
28848;SDS011;15981;43.292;-2.888;2023-03-23T03:18:23;3.72;;;2.15;;
28848;SDS011;15981;43.292;-2.888;2023-03-23T03:20:54;2.45;;;1.98;;
28848;SDS011;15981;43.292;-2.888;2023-03-23T03:23:21;3.72;;;1.98;;
28848;SDS011;15981;43.292;-2.888;2023-03-23T03:25:47;2.60;;;2.08;;
28848;SDS011;15981;43.292;-2.888;2023-03-23T03:28:17;3.45;;;2.20;;
28848;SDS011;15981;43.292;-2.888;2023-03-23T03:30:51;2.78;;;2.03;;
28848;SDS011;15981;43.292;-2.888;2023-03-23T03:33:19;2.45;;;1.70;;
28848;SDS011;15981;43.292;-2.888;2023-03-23T03:35:45;2.28;;;1.73;;
28848;SDS011;15981;43.292;-2.888;2023-03-23T03:38:11;3.25;;;2.00;;
28848;SDS011;15981;43.292;-2.888;2023-03-23T03:40:37;3.38;;;2.00;;
28848;SDS011;15981;43.292;-2.888;2023-03-23T03:43:03;2.40;;;1.55;;
28848;SDS011;15981;43.292;-2.888;2023-03-23T03:45:29;2.03;;;1.70;;
28848;SDS011;15981;43.292;-2.888;2023-03-23T03:47:55;2.25;;;1.60;;
28848;SDS011;15981;43.292;-2.888;2023-03-23T03:50:21;3.00;;;1.80;;
28848;SDS011;15981;43.292;-2.888;2023-03-23T03:52:47;2.50;;;1.90;;
28848;SDS011;15981;43.292;-2.888;2023-03-23T03:55:13;3.50;;;1.90;;
28848;SDS011;15981;43.292;-2.888;2023-03-23T03:57:39;2.47;;;1.63;;
28848;SDS011;15981;43.292;-2.888;2023-03-23T04:00:05;2.83;;;2.03;;
28848;SDS011;15981;43.292;-2.888;2023-03-23T04:02:43;2.60;;;1.70;;
28848;SDS011;15981;43.292;-2.888;2023-03-23T04:05:09;1.75;;;1.50;;
28848;SDS011;15981;43.292;-2.888;2023-03-23T04:07:36;2.28;;;1.70;;
28848;SDS011;15981;43.292;-2.888;2023-03-23T04:10:05;2.17;;;1.80;;
28848;SDS011;15981;43.292;-2.888;2023-03-23T04:12:32;1.90;;;1.60;;
28848;SDS011;15981;43.292;-2.888;2023-03-23T04:14:58;2.40;;;1.63;;
28848;SDS011;15981;43.292;-2.888;2023-03-23T04:17:24;1.95;;;1.70;;
28848;SDS011;15981;43.292;-2.888;2023-03-23T04:19:51;2.15;;;1.70;;
28848;SDS011;15981;43.292;-2.888;2023-03-23T04:22:17;3.00;;;1.98;;
28848;SDS011;15981;43.292;-2.888;2023-03-23T04:24:43;2.90;;;1.50;;
28848;SDS011;15981;43.292;-2.888;2023-03-23T04:27:09;1.83;;;1.55;;
28848;SDS011;15981;43.292;-2.888;2023-03-23T04:29:35;2.50;;;1.63;;
28848;SDS011;15981;43.292;-2.888;2023-03-23T04:32:00;2.03;;;1.52;;
28848;SDS011;15981;43.292;-2.888;2023-03-23T04:34:27;2.03;;;1.58;;
28848;SDS011;15981;43.292;-2.888;2023-03-23T04:36:53;2.30;;;1.60;;
28848;SDS011;15981;43.292;-2.888;2023-03-23T04:39:18;1.88;;;1.55;;
28848;SDS011;15981;43.292;-2.888;2023-03-23T04:41:44;1.90;;;1.43;;
28848;SDS011;15981;43.292;-2.888;2023-03-23T04:44:11;1.42;;;1.33;;
28848;SDS011;15981;43.292;-2.888;2023-03-23T04:46:43;2.20;;;1.48;;
28848;SDS011;15981;43.292;-2.888;2023-03-23T04:49:10;1.83;;;1.48;;
28848;SDS011;15981;43.292;-2.888;2023-03-23T04:51:36;1.70;;;1.48;;
28848;SDS011;15981;43.292;-2.888;2023-03-23T04:54:04;1.85;;;1.42;;
28848;SDS011;15981;43.292;-2.888;2023-03-23T04:56:30;2.97;;;1.73;;
28848;SDS011;15981;43.292;-2.888;2023-03-23T04:58:55;2.07;;;1.47;;
28848;SDS011;15981;43.292;-2.888;2023-03-23T05:01:21;1.85;;;1.58;;
28848;SDS011;15981;43.292;-2.888;2023-03-23T05:03:47;1.75;;;1.50;;
28848;SDS011;15981;43.292;-2.888;2023-03-23T05:06:13;1.77;;;1.53;;
28848;SDS011;15981;43.292;-2.888;2023-03-23T05:08:39;2.43;;;1.47;;
28848;SDS011;15981;43.292;-2.888;2023-03-23T05:11:05;1.67;;;1.40;;
28848;SDS011;15981;43.292;-2.888;2023-03-23T05:13:31;1.48;;;1.30;;
28848;SDS011;15981;43.292;-2.888;2023-03-23T05:15:57;1.23;;;1.13;;
28848;SDS011;15981;43.292;-2.888;2023-03-23T05:18:23;2.25;;;1.58;;
28848;SDS011;15981;43.292;-2.888;2023-03-23T05:20:48;1.70;;;1.25;;
28848;SDS011;15981;43.292;-2.888;2023-03-23T05:23:18;1.58;;;1.20;;
28848;SDS011;15981;43.292;-2.888;2023-03-23T05:25:52;1.70;;;1.50;;
28848;SDS011;15981;43.292;-2.888;2023-03-23T05:28:18;2.22;;;1.60;;
28848;SDS011;15981;43.292;-2.888;2023-03-23T05:30:44;2.13;;;1.40;;
28848;SDS011;15981;43.292;-2.888;2023-03-23T05:33:10;2.03;;;1.58;;
28848;SDS011;15981;43.292;-2.888;2023-03-23T05:35:35;1.83;;;1.30;;
28848;SDS011;15981;43.292;-2.888;2023-03-23T05:38:01;1.40;;;1.25;;
28848;SDS011;15981;43.292;-2.888;2023-03-23T05:40:28;2.10;;;1.33;;
28848;SDS011;15981;43.292;-2.888;2023-03-23T05:42:55;1.83;;;1.33;;
28848;SDS011;15981;43.292;-2.888;2023-03-23T05:45:24;1.70;;;1.37;;
28848;SDS011;15981;43.292;-2.888;2023-03-23T05:47:50;1.20;;;1.10;;
28848;SDS011;15981;43.292;-2.888;2023-03-23T05:50:16;1.70;;;1.33;;
28848;SDS011;15981;43.292;-2.888;2023-03-23T05:52:43;1.60;;;1.30;;
28848;SDS011;15981;43.292;-2.888;2023-03-23T05:55:08;1.40;;;1.30;;
28848;SDS011;15981;43.292;-2.888;2023-03-23T05:57:34;1.67;;;1.30;;
28848;SDS011;15981;43.292;-2.888;2023-03-23T06:00:00;1.27;;;1.00;;
28848;SDS011;15981;43.292;-2.888;2023-03-23T06:02:31;1.20;;;1.10;;
28848;SDS011;15981;43.292;-2.888;2023-03-23T06:04:57;1.20;;;1.10;;
28848;SDS011;15981;43.292;-2.888;2023-03-23T06:07:24;1.67;;;1.30;;
28848;SDS011;15981;43.292;-2.888;2023-03-23T06:09:50;1.65;;;1.35;;
28848;SDS011;15981;43.292;-2.888;2023-03-23T06:12:16;2.20;;;1.20;;
28848;SDS011;15981;43.292;-2.888;2023-03-23T06:14:48;1.50;;;1.10;;
28848;SDS011;15981;43.292;-2.888;2023-03-23T06:17:14;1.58;;;1.27;;
28848;SDS011;15981;43.292;-2.888;2023-03-23T06:19:40;2.85;;;1.30;;
28848;SDS011;15981;43.292;-2.888;2023-03-23T06:22:06;1.27;;;1.08;;
28848;SDS011;15981;43.292;-2.888;2023-03-23T06:24:31;1.90;;;1.13;;
28848;SDS011;15981;43.292;-2.888;2023-03-23T06:26:58;1.27;;;1.15;;
28848;SDS011;15981;43.292;-2.888;2023-03-23T06:29:24;1.50;;;1.10;;
28848;SDS011;15981;43.292;-2.888;2023-03-23T06:31:51;1.42;;;1.13;;
28848;SDS011;15981;43.292;-2.888;2023-03-23T06:34:19;1.98;;;1.30;;
28848;SDS011;15981;43.292;-2.888;2023-03-23T06:36:45;1.25;;;1.05;;
28848;SDS011;15981;43.292;-2.888;2023-03-23T06:39:12;1.70;;;1.20;;
28848;SDS011;15981;43.292;-2.888;2023-03-23T06:41:39;1.63;;;1.30;;
28848;SDS011;15981;43.292;-2.888;2023-03-23T06:44:05;1.53;;;1.30;;
28848;SDS011;15981;43.292;-2.888;2023-03-23T06:46:31;1.65;;;1.10;;
28848;SDS011;15981;43.292;-2.888;2023-03-23T06:48:57;1.60;;;1.10;;
28848;SDS011;15981;43.292;-2.888;2023-03-23T06:51:23;1.40;;;1.10;;
28848;SDS011;15981;43.292;-2.888;2023-03-23T06:53:49;1.17;;;1.07;;
28848;SDS011;15981;43.292;-2.888;2023-03-23T06:56:15;1.75;;;1.00;;
28848;SDS011;15981;43.292;-2.888;2023-03-23T06:58:41;2.08;;;1.10;;
28848;SDS011;15981;43.292;-2.888;2023-03-23T07:01:11;4.78;;;1.40;;
28848;SDS011;15981;43.292;-2.888;2023-03-23T07:03:36;1.67;;;1.10;;
28848;SDS011;15981;43.292;-2.888;2023-03-23T07:06:03;2.35;;;1.33;;
28848;SDS011;15981;43.292;-2.888;2023-03-23T07:08:29;3.17;;;1.42;;
28848;SDS011;15981;43.292;-2.888;2023-03-23T07:10:55;3.72;;;2.28;;
28848;SDS011;15981;43.292;-2.888;2023-03-23T07:13:21;5.32;;;1.90;;
28848;SDS011;15981;43.292;-2.888;2023-03-23T07:15:47;3.40;;;1.70;;
28848;SDS011;15981;43.292;-2.888;2023-03-23T07:18:14;58.55;;;18.05;;
28848;SDS011;15981;43.292;-2.888;2023-03-23T07:20:40;35.37;;;12.20;;
28848;SDS011;15981;43.292;-2.888;2023-03-23T07:23:06;30.15;;;10.00;;
28848;SDS011;15981;43.292;-2.888;2023-03-23T07:25:32;25.50;;;8.25;;
28848;SDS011;15981;43.292;-2.888;2023-03-23T07:27:59;26.13;;;8.20;;
28848;SDS011;15981;43.292;-2.888;2023-03-23T07:30:25;20.17;;;7.97;;
28848;SDS011;15981;43.292;-2.888;2023-03-23T07:32:51;22.55;;;8.07;;
28848;SDS011;15981;43.292;-2.888;2023-03-23T07:35:17;21.50;;;7.37;;
28848;SDS011;15981;43.292;-2.888;2023-03-23T07:37:43;19.70;;;6.03;;
28848;SDS011;15981;43.292;-2.888;2023-03-23T07:40:09;18.13;;;5.60;;
28848;SDS011;15981;43.292;-2.888;2023-03-23T07:42:45;16.38;;;5.65;;
28848;SDS011;15981;43.292;-2.888;2023-03-23T07:45:11;18.35;;;5.38;;
28848;SDS011;15981;43.292;-2.888;2023-03-23T07:47:38;15.20;;;4.77;;
28848;SDS011;15981;43.292;-2.888;2023-03-23T07:50:04;12.10;;;4.70;;
28848;SDS011;15981;43.292;-2.888;2023-03-23T07:52:30;13.10;;;4.93;;
28848;SDS011;15981;43.292;-2.888;2023-03-23T07:54:56;10.32;;;4.05;;
28848;SDS011;15981;43.292;-2.888;2023-03-23T07:57:22;9.82;;;3.88;;
28848;SDS011;15981;43.292;-2.888;2023-03-23T07:59:47;11.03;;;4.17;;
28848;SDS011;15981;43.292;-2.888;2023-03-23T08:02:13;7.70;;;3.72;;
28848;SDS011;15981;43.292;-2.888;2023-03-23T08:04:39;10.95;;;4.00;;
28848;SDS011;15981;43.292;-2.888;2023-03-23T08:07:05;11.38;;;3.95;;
28848;SDS011;15981;43.292;-2.888;2023-03-23T08:09:31;12.23;;;4.33;;
28848;SDS011;15981;43.292;-2.888;2023-03-23T08:11:57;11.83;;;5.67;;
28848;SDS011;15981;43.292;-2.888;2023-03-23T08:14:23;14.98;;;10.77;;
28848;SDS011;15981;43.292;-2.888;2023-03-23T08:16:53;18.77;;;12.20;;
28848;SDS011;15981;43.292;-2.888;2023-03-23T08:19:20;18.30;;;12.32;;
28848;SDS011;15981;43.292;-2.888;2023-03-23T08:21:46;17.37;;;10.87;;
28848;SDS011;15981;43.292;-2.888;2023-03-23T08:24:12;18.98;;;10.55;;
28848;SDS011;15981;43.292;-2.888;2023-03-23T08:26:38;14.77;;;9.77;;
28848;SDS011;15981;43.292;-2.888;2023-03-23T08:29:05;11.95;;;8.18;;
28848;SDS011;15981;43.292;-2.888;2023-03-23T08:31:31;14.43;;;8.05;;
28848;SDS011;15981;43.292;-2.888;2023-03-23T08:34:00;14.23;;;7.63;;
28848;SDS011;15981;43.292;-2.888;2023-03-23T08:36:26;13.82;;;7.53;;
28848;SDS011;15981;43.292;-2.888;2023-03-23T08:38:53;14.20;;;6.97;;
28848;SDS011;15981;43.292;-2.888;2023-03-23T08:41:18;11.00;;;7.07;;
28848;SDS011;15981;43.292;-2.888;2023-03-23T08:43:44;11.68;;;6.88;;
28848;SDS011;15981;43.292;-2.888;2023-03-23T08:46:10;9.43;;;6.90;;
28848;SDS011;15981;43.292;-2.888;2023-03-23T08:48:37;10.43;;;6.07;;
28848;SDS011;15981;43.292;-2.888;2023-03-23T08:51:04;10.00;;;6.57;;
28848;SDS011;15981;43.292;-2.888;2023-03-23T08:53:30;12.00;;;6.80;;
28848;SDS011;15981;43.292;-2.888;2023-03-23T08:56:02;9.95;;;6.15;;
28848;SDS011;15981;43.292;-2.888;2023-03-23T08:58:28;9.75;;;6.05;;
28848;SDS011;15981;43.292;-2.888;2023-03-23T09:00:54;11.07;;;5.85;;
28848;SDS011;15981;43.292;-2.888;2023-03-23T09:03:20;11.30;;;5.83;;
28848;SDS011;15981;43.292;-2.888;2023-03-23T09:05:46;11.90;;;7.15;;
28848;SDS011;15981;43.292;-2.888;2023-03-23T09:08:11;27.05;;;15.40;;
28848;SDS011;15981;43.292;-2.888;2023-03-23T09:10:37;32.85;;;19.52;;
28848;SDS011;15981;43.292;-2.888;2023-03-23T09:13:04;42.55;;;24.58;;
28848;SDS011;15981;43.292;-2.888;2023-03-23T09:15:30;39.28;;;24.85;;
28848;SDS011;15981;43.292;-2.888;2023-03-23T09:17:56;49.83;;;30.40;;
28848;SDS011;15981;43.292;-2.888;2023-03-23T09:20:23;50.17;;;30.93;;
28848;SDS011;15981;43.292;-2.888;2023-03-23T09:22:50;44.47;;;29.75;;
28848;SDS011;15981;43.292;-2.888;2023-03-23T09:25:17;41.70;;;27.90;;
28848;SDS011;15981;43.292;-2.888;2023-03-23T09:27:46;33.42;;;21.85;;
28848;SDS011;15981;43.292;-2.888;2023-03-23T09:30:14;25.67;;;18.92;;
28848;SDS011;15981;43.292;-2.888;2023-03-23T09:32:40;23.92;;;15.43;;
28848;SDS011;15981;43.292;-2.888;2023-03-23T09:35:09;18.83;;;13.47;;
28848;SDS011;15981;43.292;-2.888;2023-03-23T09:37:37;19.08;;;12.02;;
28848;SDS011;15981;43.292;-2.888;2023-03-23T09:40:04;15.18;;;9.77;;
28848;SDS011;15981;43.292;-2.888;2023-03-23T09:42:40;11.43;;;7.82;;
28848;SDS011;15981;43.292;-2.888;2023-03-23T09:45:23;10.68;;;6.78;;
28848;SDS011;15981;43.292;-2.888;2023-03-23T09:50:24;8.45;;;5.03;;
28848;SDS011;15981;43.292;-2.888;2023-03-23T09:52:54;6.30;;;3.92;;
28848;SDS011;15981;43.292;-2.888;2023-03-23T09:55:21;5.37;;;3.90;;
28848;SDS011;15981;43.292;-2.888;2023-03-23T10:00:14;4.03;;;2.53;;
28848;SDS011;15981;43.292;-2.888;2023-03-23T10:08:10;2.60;;;1.60;;
28848;SDS011;15981;43.292;-2.888;2023-03-23T10:13:13;25.83;;;15.60;;
28848;SDS011;15981;43.292;-2.888;2023-03-23T10:15:42;19.67;;;12.82;;
28848;SDS011;15981;43.292;-2.888;2023-03-23T10:25:28;7.38;;;4.50;;
28848;SDS011;15981;43.292;-2.888;2023-03-23T10:28:56;4.18;;;2.67;;
28848;SDS011;15981;43.292;-2.888;2023-03-23T10:30:54;3.20;;;2.08;;
28848;SDS011;15981;43.292;-2.888;2023-03-23T10:33:54;2.40;;;1.67;;
28848;SDS011;15981;43.292;-2.888;2023-03-23T10:41:23;1.30;;;0.98;;
28848;SDS011;15981;43.292;-2.888;2023-03-23T10:43:48;1.13;;;0.80;;
28848;SDS011;15981;43.292;-2.888;2023-03-23T10:49:03;1.60;;;0.90;;
28848;SDS011;15981;43.292;-2.888;2023-03-23T10:51:37;1.23;;;0.85;;
28848;SDS011;15981;43.292;-2.888;2023-03-23T10:54:05;1.63;;;0.88;;
28848;SDS011;15981;43.292;-2.888;2023-03-23T10:56:38;1.02;;;0.80;;
28848;SDS011;15981;43.292;-2.888;2023-03-23T10:59:39;1.13;;;0.93;;
28848;SDS011;15981;43.292;-2.888;2023-03-23T11:01:59;1.55;;;1.10;;
28848;SDS011;15981;43.292;-2.888;2023-03-23T11:04:28;1.25;;;0.85;;
28848;SDS011;15981;43.292;-2.888;2023-03-23T11:06:58;0.90;;;0.80;;
28848;SDS011;15981;43.292;-2.888;2023-03-23T11:09:39;1.92;;;0.98;;
28848;SDS011;15981;43.292;-2.888;2023-03-23T11:12:15;0.93;;;0.82;;
28848;SDS011;15981;43.292;-2.888;2023-03-23T11:14:41;1.00;;;0.80;;
28848;SDS011;15981;43.292;-2.888;2023-03-23T11:17:19;1.10;;;0.90;;
28848;SDS011;15981;43.292;-2.888;2023-03-23T11:19:46;1.67;;;0.95;;
28848;SDS011;15981;43.292;-2.888;2023-03-23T11:22:27;1.30;;;0.80;;
28848;SDS011;15981;43.292;-2.888;2023-03-23T11:24:55;1.08;;;0.90;;
28848;SDS011;15981;43.292;-2.888;2023-03-23T11:27:21;1.80;;;0.80;;
28848;SDS011;15981;43.292;-2.888;2023-03-23T11:29:52;1.52;;;1.20;;
28848;SDS011;15981;43.292;-2.888;2023-03-23T11:32:19;1.02;;;0.77;;
28848;SDS011;15981;43.292;-2.888;2023-03-23T11:34:48;1.48;;;0.75;;
28848;SDS011;15981;43.292;-2.888;2023-03-23T11:39:53;3.38;;;1.30;;
28848;SDS011;15981;43.292;-2.888;2023-03-23T11:42:20;1.60;;;1.05;;
28848;SDS011;15981;43.292;-2.888;2023-03-23T11:44:46;2.58;;;0.93;;
28848;SDS011;15981;43.292;-2.888;2023-03-23T11:47:30;1.80;;;1.20;;
28848;SDS011;15981;43.292;-2.888;2023-03-23T11:50:01;0.90;;;0.80;;
28848;SDS011;15981;43.292;-2.888;2023-03-23T11:55:25;1.17;;;0.90;;
28848;SDS011;15981;43.292;-2.888;2023-03-23T11:57:52;1.20;;;0.98;;
28848;SDS011;15981;43.292;-2.888;2023-03-23T12:00:22;1.23;;;1.10;;
28848;SDS011;15981;43.292;-2.888;2023-03-23T12:10:43;3.10;;;1.60;;
28848;SDS011;15981;43.292;-2.888;2023-03-23T12:13:16;2.67;;;1.23;;
28848;SDS011;15981;43.292;-2.888;2023-03-23T12:16:00;3.03;;;1.20;;
28848;SDS011;15981;43.292;-2.888;2023-03-23T12:18:37;2.65;;;1.30;;
28848;SDS011;15981;43.292;-2.888;2023-03-23T12:23:55;2.95;;;1.20;;
28848;SDS011;15981;43.292;-2.888;2023-03-23T12:44:11;37.53;;;20.98;;
28848;SDS011;15981;43.292;-2.888;2023-03-23T12:54:35;17.50;;;7.93;;
28848;SDS011;15981;43.292;-2.888;2023-03-23T12:57:07;13.43;;;6.33;;
28848;SDS011;15981;43.292;-2.888;2023-03-23T13:02:10;9.63;;;5.00;;
28848;SDS011;15981;43.292;-2.888;2023-03-23T13:04:41;9.13;;;4.00;;
28848;SDS011;15981;43.292;-2.888;2023-03-23T13:07:11;7.35;;;5.15;;
28848;SDS011;15981;43.292;-2.888;2023-03-23T13:12:04;36.92;;;22.95;;
28848;SDS011;15981;43.292;-2.888;2023-03-23T13:14:46;43.92;;;28.23;;
28848;SDS011;15981;43.292;-2.888;2023-03-23T13:22:30;24.80;;;15.87;;
28848;SDS011;15981;43.292;-2.888;2023-03-23T13:24:58;15.98;;;11.13;;
28848;SDS011;15981;43.292;-2.888;2023-03-23T13:27:26;13.98;;;9.02;;
28848;SDS011;15981;43.292;-2.888;2023-03-23T13:29:54;10.40;;;7.00;;
28848;SDS011;15981;43.292;-2.888;2023-03-23T13:32:20;9.90;;;5.93;;
28848;SDS011;15981;43.292;-2.888;2023-03-23T13:34:47;8.70;;;5.40;;
28848;SDS011;15981;43.292;-2.888;2023-03-23T13:37:26;7.28;;;4.60;;
28848;SDS011;15981;43.292;-2.888;2023-03-23T13:39:57;6.18;;;4.40;;
28848;SDS011;15981;43.292;-2.888;2023-03-23T13:42:27;8.95;;;4.53;;
28848;SDS011;15981;43.292;-2.888;2023-03-23T13:52:24;170.73;;;66.68;;
28848;SDS011;15981;43.292;-2.888;2023-03-23T13:54:51;207.50;;;83.35;;
28848;SDS011;15981;43.292;-2.888;2023-03-23T13:57:23;198.30;;;81.57;;
28848;SDS011;15981;43.292;-2.888;2023-03-23T13:59:55;190.27;;;76.70;;
28848;SDS011;15981;43.292;-2.888;2023-03-23T14:02:32;155.98;;;63.72;;
28848;SDS011;15981;43.292;-2.888;2023-03-23T14:07:57;115.88;;;47.20;;
28848;SDS011;15981;43.292;-2.888;2023-03-23T14:10:31;103.28;;;42.28;;
28848;SDS011;15981;43.292;-2.888;2023-03-23T14:12:57;97.90;;;38.00;;
28848;SDS011;15981;43.292;-2.888;2023-03-23T14:15:27;84.65;;;35.95;;
28848;SDS011;15981;43.292;-2.888;2023-03-23T14:17:53;82.35;;;33.30;;
28848;SDS011;15981;43.292;-2.888;2023-03-23T14:20:40;70.78;;;30.25;;
28848;SDS011;15981;43.292;-2.888;2023-03-23T14:23:05;65.28;;;28.33;;
28848;SDS011;15981;43.292;-2.888;2023-03-23T14:25:31;66.73;;;26.97;;
28848;SDS011;15981;43.292;-2.888;2023-03-23T14:27:58;56.72;;;25.27;;
28848;SDS011;15981;43.292;-2.888;2023-03-23T14:30:27;58.47;;;24.00;;
28848;SDS011;15981;43.292;-2.888;2023-03-23T14:33:04;55.75;;;22.27;;
28848;SDS011;15981;43.292;-2.888;2023-03-23T14:35:30;49.13;;;21.35;;
28848;SDS011;15981;43.292;-2.888;2023-03-23T14:37:57;46.20;;;19.38;;
28848;SDS011;15981;43.292;-2.888;2023-03-23T14:40:25;39.67;;;17.73;;
28848;SDS011;15981;43.292;-2.888;2023-03-23T14:42:51;41.70;;;17.25;;
28848;SDS011;15981;43.292;-2.888;2023-03-23T14:45:20;35.47;;;16.40;;
28848;SDS011;15981;43.292;-2.888;2023-03-23T14:47:59;41.30;;;16.27;;
28848;SDS011;15981;43.292;-2.888;2023-03-23T14:50:27;31.45;;;14.18;;
28848;SDS011;15981;43.292;-2.888;2023-03-23T14:52:58;32.53;;;14.32;;
28848;SDS011;15981;43.292;-2.888;2023-03-23T14:55:24;34.33;;;14.10;;
28848;SDS011;15981;43.292;-2.888;2023-03-23T14:57:54;28.50;;;13.15;;
28848;SDS011;15981;43.292;-2.888;2023-03-23T15:02:47;29.55;;;13.05;;
28848;SDS011;15981;43.292;-2.888;2023-03-23T15:05:16;26.90;;;12.13;;
28848;SDS011;15981;43.292;-2.888;2023-03-23T15:07:44;24.65;;;11.35;;
28848;SDS011;15981;43.292;-2.888;2023-03-23T15:10:14;22.92;;;10.38;;
28848;SDS011;15981;43.292;-2.888;2023-03-23T15:12:42;22.02;;;9.70;;
28848;SDS011;15981;43.292;-2.888;2023-03-23T15:15:14;20.13;;;9.50;;
28848;SDS011;15981;43.292;-2.888;2023-03-23T15:17:44;25.58;;;10.35;;
28848;SDS011;15981;43.292;-2.888;2023-03-23T15:20:19;24.73;;;10.73;;
28848;SDS011;15981;43.292;-2.888;2023-03-23T15:22:46;27.45;;;10.55;;
28848;SDS011;15981;43.292;-2.888;2023-03-23T15:25:22;25.15;;;10.05;;
28848;SDS011;15981;43.292;-2.888;2023-03-23T15:27:52;20.80;;;8.87;;
28848;SDS011;15981;43.292;-2.888;2023-03-23T15:32:47;17.23;;;7.90;;
28848;SDS011;15981;43.292;-2.888;2023-03-23T15:35:16;17.58;;;8.00;;
28848;SDS011;15981;43.292;-2.888;2023-03-23T15:37:44;19.42;;;7.28;;
28848;SDS011;15981;43.292;-2.888;2023-03-23T15:40:16;20.60;;;8.07;;
28848;SDS011;15981;43.292;-2.888;2023-03-23T15:42:42;21.65;;;8.05;;
28848;SDS011;15981;43.292;-2.888;2023-03-23T15:47:43;21.20;;;7.72;;
28848;SDS011;15981;43.292;-2.888;2023-03-23T15:52:38;19.25;;;7.63;;
28848;SDS011;15981;43.292;-2.888;2023-03-23T15:55:16;15.75;;;7.75;;
28848;SDS011;15981;43.292;-2.888;2023-03-23T15:57:43;18.92;;;7.93;;
28848;SDS011;15981;43.292;-2.888;2023-03-23T16:00:09;19.03;;;7.23;;
28848;SDS011;15981;43.292;-2.888;2023-03-23T16:02:35;14.95;;;7.32;;
28848;SDS011;15981;43.292;-2.888;2023-03-23T16:05:01;14.30;;;6.70;;
28848;SDS011;15981;43.292;-2.888;2023-03-23T16:07:27;14.10;;;6.90;;
28848;SDS011;15981;43.292;-2.888;2023-03-23T16:09:53;13.52;;;7.32;;
28848;SDS011;15981;43.292;-2.888;2023-03-23T16:12:18;15.43;;;7.03;;
28848;SDS011;15981;43.292;-2.888;2023-03-23T16:14:44;13.13;;;6.20;;
28848;SDS011;15981;43.292;-2.888;2023-03-23T16:17:11;14.93;;;6.50;;
28848;SDS011;15981;43.292;-2.888;2023-03-23T16:19:40;14.10;;;6.03;;
28848;SDS011;15981;43.292;-2.888;2023-03-23T16:22:07;13.20;;;5.63;;
28848;SDS011;15981;43.292;-2.888;2023-03-23T16:24:33;10.63;;;4.97;;
28848;SDS011;15981;43.292;-2.888;2023-03-23T16:26:58;10.05;;;4.55;;
28848;SDS011;15981;43.292;-2.888;2023-03-23T16:29:24;8.53;;;4.43;;
28848;SDS011;15981;43.292;-2.888;2023-03-23T16:31:50;10.35;;;4.28;;
28848;SDS011;15981;43.292;-2.888;2023-03-23T16:34:15;7.47;;;4.22;;
28848;SDS011;15981;43.292;-2.888;2023-03-23T16:36:41;10.63;;;4.57;;
28848;SDS011;15981;43.292;-2.888;2023-03-23T16:39:08;9.32;;;4.40;;
28848;SDS011;15981;43.292;-2.888;2023-03-23T16:41:34;8.23;;;4.22;;
28848;SDS011;15981;43.292;-2.888;2023-03-23T16:44:00;9.10;;;3.97;;
28848;SDS011;15981;43.292;-2.888;2023-03-23T16:46:26;7.77;;;3.73;;